createdAt,value
2018-02-18T00:01:34.776Z,2.10
2018-02-18T00:04:02.397Z,2.10
2018-02-18T00:06:30.037Z,2.10
2018-02-18T00:08:57.646Z,2.10
2018-02-18T00:11:25.306Z,2.10
2018-02-18T00:13:53.713Z,2.20
2018-02-18T00:16:21.328Z,2.10
2018-02-18T00:18:49.741Z,2.20
2018-02-18T00:21:17.365Z,2.10
2018-02-18T00:23:45.021Z,2.20
2018-02-18T00:26:12.642Z,2.10
2018-02-18T00:28:40.260Z,2.20
2018-02-18T00:31:07.905Z,2.20
2018-02-18T00:33:35.513Z,2.20
2018-02-18T00:36:03.166Z,2.20
2018-02-18T00:38:30.777Z,2.20
2018-02-18T00:40:58.390Z,2.10
2018-02-18T00:43:26.030Z,2.20
2018-02-18T00:45:53.645Z,2.20
2018-02-18T00:48:21.301Z,2.20
2018-02-18T00:50:49.681Z,2.20
2018-02-18T00:53:17.298Z,2.10
2018-02-18T00:55:44.932Z,2.20
2018-02-18T00:58:12.541Z,2.20
2018-02-18T01:00:40.190Z,2.20
2018-02-18T01:03:08.570Z,2.10
2018-02-18T01:05:36.189Z,2.10
2018-02-18T01:08:03.829Z,2.10
2018-02-18T01:10:32.205Z,2.00
2018-02-18T01:12:59.858Z,2.00
2018-02-18T01:15:27.466Z,2.10
2018-02-18T01:17:55.843Z,2.10
2018-02-18T01:20:23.487Z,2.10
2018-02-18T01:22:51.110Z,2.10
2018-02-18T01:25:19.538Z,2.20
2018-02-18T01:27:47.149Z,2.10
2018-02-18T01:30:14.772Z,2.20
2018-02-18T01:32:42.412Z,2.10
2018-02-18T01:35:10.031Z,2.20
2018-02-18T01:37:37.697Z,2.20
2018-02-18T01:40:05.316Z,2.30
2018-02-18T01:42:32.925Z,2.30
2018-02-18T01:45:00.566Z,2.30
2018-02-18T01:47:28.177Z,2.20
2018-02-18T01:49:55.831Z,2.30
2018-02-18T01:52:24.209Z,2.30
2018-02-18T01:54:51.825Z,2.30
2018-02-18T01:57:19.464Z,2.20
2018-02-18T01:59:47.078Z,2.20
2018-02-18T02:02:14.732Z,2.30
2018-02-18T02:04:42.355Z,2.30
2018-02-18T02:07:10.004Z,2.30
2018-02-18T02:09:37.633Z,2.30
2018-02-18T02:12:05.258Z,2.30
2018-02-18T02:14:32.912Z,2.30
2018-02-18T02:17:00.530Z,2.30
2018-02-18T02:19:28.145Z,2.30
2018-02-18T02:21:56.549Z,2.40
2018-02-18T02:24:24.164Z,2.30
2018-02-18T02:26:51.817Z,2.40
2018-02-18T02:29:19.428Z,2.30
2018-02-18T02:31:47.042Z,2.30
2018-02-18T02:34:14.694Z,2.30
2018-02-18T02:36:42.306Z,2.30
2018-02-18T02:39:09.958Z,2.30
2018-02-18T02:41:38.338Z,2.40
2018-02-18T02:44:06.722Z,2.50
2018-02-18T02:46:34.357Z,2.40
2018-02-18T02:49:01.970Z,2.40
2018-02-18T02:51:29.618Z,2.40
2018-02-18T02:53:57.230Z,2.40
2018-02-18T02:56:26.021Z,2.30
2018-02-18T02:58:53.667Z,2.30
2018-02-18T03:01:21.285Z,2.30
2018-02-18T03:03:49.713Z,2.40
2018-02-18T03:06:17.330Z,2.30
2018-02-18T03:08:44.940Z,2.40
2018-02-18T03:11:12.579Z,2.40
2018-02-18T03:13:40.202Z,2.40
2018-02-18T03:16:07.854Z,2.30
2018-02-18T03:18:35.474Z,2.40
2018-02-18T03:21:03.087Z,2.40
2018-02-18T03:23:31.488Z,2.30
2018-02-18T03:25:59.869Z,2.30
2018-02-18T03:28:28.282Z,2.30
2018-02-18T03:30:55.896Z,2.30
2018-02-18T03:33:23.509Z,2.30
2018-02-18T03:35:51.909Z,2.30
2018-02-18T03:38:20.296Z,2.30
2018-02-18T03:40:48.713Z,2.20
2018-02-18T03:43:16.342Z,2.20
2018-02-18T03:45:43.965Z,2.30
2018-02-18T03:48:11.608Z,2.30
2018-02-18T03:50:39.986Z,2.20
2018-02-18T03:53:07.606Z,2.20
2018-02-18T03:55:35.257Z,2.20
2018-02-18T03:58:03.639Z,2.20
2018-02-18T04:00:32.026Z,2.20
2018-02-18T04:03:00.446Z,2.20
2018-02-18T04:05:28.065Z,2.10
2018-02-18T04:07:55.682Z,2.20
2018-02-18T04:10:24.097Z,2.10
2018-02-18T04:12:51.708Z,2.10
2018-02-18T04:15:19.361Z,2.20
2018-02-18T04:17:46.977Z,2.20
2018-02-18T04:20:14.592Z,2.10
2018-02-18T04:22:42.230Z,2.20
2018-02-18T04:25:10.613Z,2.10
2018-02-18T04:27:38.259Z,2.00
2018-02-18T04:30:05.878Z,2.10
2018-02-18T04:32:34.255Z,2.20
2018-02-18T04:35:01.889Z,2.20
2018-02-18T04:37:29.501Z,2.10
2018-02-18T04:39:57.154Z,2.10
2018-02-18T04:42:24.765Z,2.10
2018-02-18T04:44:53.146Z,2.10
2018-02-18T04:47:20.786Z,2.00
2018-02-18T04:49:48.404Z,2.00
2018-02-18T04:52:16.817Z,2.00
2018-02-18T04:54:44.433Z,2.00
2018-02-18T04:57:12.048Z,2.00
2018-02-18T04:59:40.453Z,2.00
2018-02-18T05:02:08.061Z,2.00
2018-02-18T05:04:35.710Z,2.00
2018-02-18T05:07:03.328Z,2.00
2018-02-18T05:09:30.952Z,2.00
2018-02-18T05:11:58.589Z,2.00
2018-02-18T05:14:26.205Z,2.00
2018-02-18T05:16:53.857Z,2.00
2018-02-18T05:19:22.239Z,2.00
2018-02-18T05:21:50.625Z,2.00
2018-02-18T05:24:18.262Z,1.90
2018-02-18T05:26:45.873Z,2.00
2018-02-18T05:29:13.549Z,1.90
2018-02-18T05:31:41.169Z,1.90
2018-02-18T05:34:10.204Z,1.90
2018-02-18T05:36:37.851Z,2.00
2018-02-18T05:39:05.467Z,2.00
2018-02-18T05:44:12.201Z,1.80
2018-02-18T05:46:40.634Z,1.70
2018-02-18T05:49:08.281Z,1.70
2018-02-18T05:51:36.661Z,1.90
2018-02-18T05:54:05.033Z,1.80
2018-02-18T05:56:32.665Z,1.80
2018-02-18T05:59:00.364Z,1.90
2018-02-18T06:01:28.022Z,1.90
2018-02-18T06:03:55.633Z,1.90
2018-02-18T06:06:23.244Z,1.90
2018-02-18T06:08:50.921Z,2.00
2018-02-18T06:11:18.690Z,1.90
2018-02-18T06:13:46.338Z,1.90
2018-02-18T06:16:13.954Z,1.90
2018-02-18T06:18:41.681Z,2.00
2018-02-18T06:21:09.337Z,2.00
2018-02-18T06:23:36.965Z,2.00
2018-02-18T06:26:05.385Z,1.90
2018-02-18T06:28:33.144Z,1.80
2018-02-18T06:31:01.085Z,1.80
2018-02-18T06:33:28.734Z,1.80
2018-02-18T06:35:56.344Z,1.80
2018-02-18T06:38:24.764Z,1.90
2018-02-18T06:40:52.522Z,1.80
2018-02-18T06:43:20.904Z,1.80
2018-02-18T06:45:49.313Z,1.90
2018-02-18T06:48:17.693Z,1.90
2018-02-18T06:50:46.113Z,1.90
2018-02-18T06:53:13.729Z,1.80
2018-02-18T06:55:41.340Z,1.90
2018-02-18T06:58:09.741Z,2.00
2018-02-18T07:00:38.127Z,2.00
2018-02-18T07:03:06.542Z,2.00
2018-02-18T07:05:34.161Z,2.00
2018-02-18T07:08:01.814Z,2.00
2018-02-18T07:10:29.453Z,2.00
2018-02-18T07:12:57.073Z,1.90
2018-02-18T07:15:24.725Z,1.90
2018-02-18T07:17:52.341Z,2.00
2018-02-18T07:20:19.962Z,2.10
2018-02-18T07:22:47.602Z,2.10
2018-02-18T07:25:15.981Z,2.30
2018-02-18T07:27:43.634Z,2.20
2018-02-18T07:30:11.245Z,2.30
2018-02-18T07:32:38.872Z,2.20
2018-02-18T07:35:06.522Z,2.20
2018-02-18T07:37:34.133Z,2.20
2018-02-18T07:40:01.790Z,2.20
2018-02-18T07:42:29.413Z,2.20
2018-02-18T07:44:57.797Z,2.30
2018-02-18T07:47:26.202Z,2.30
2018-02-18T07:49:55.611Z,2.40
2018-02-18T07:52:24.029Z,2.40
2018-02-18T07:54:51.641Z,2.40
2018-02-18T07:57:19.274Z,2.50
2018-02-18T07:59:46.913Z,2.50
2018-02-18T08:02:14.525Z,2.60
2018-02-18T08:04:42.177Z,2.50
2018-02-18T08:07:10.557Z,2.50
2018-02-18T08:09:38.189Z,2.40
2018-02-18T08:12:06.388Z,2.70
2018-02-18T08:14:34.062Z,2.60
2018-02-18T08:17:04.995Z,2.70
2018-02-18T08:19:32.614Z,2.60
2018-02-18T08:22:00.233Z,2.60
2018-02-18T08:24:29.837Z,2.70
2018-02-18T08:26:57.450Z,2.70
2018-02-18T08:29:25.113Z,2.80
2018-02-18T08:31:52.729Z,2.90
2018-02-18T08:34:21.504Z,3.00
2018-02-18T08:36:49.169Z,3.00
2018-02-18T08:39:16.778Z,3.00
2018-02-18T08:41:44.433Z,3.00
2018-02-18T08:44:12.050Z,3.00
2018-02-18T08:46:40.427Z,2.90
2018-02-18T08:49:15.954Z,2.90
2018-02-18T08:51:43.567Z,2.80
2018-02-18T08:54:11.982Z,2.90
2018-02-18T08:56:39.602Z,2.80
2018-02-18T08:59:07.241Z,2.90
2018-02-18T09:01:34.878Z,3.10
2018-02-18T09:04:03.306Z,3.00
2018-02-18T09:06:30.952Z,3.00
2018-02-18T09:08:59.667Z,3.50
2018-02-18T09:11:27.286Z,3.50
2018-02-18T09:13:54.922Z,3.70
2018-02-18T09:16:22.597Z,3.70
2018-02-18T09:18:51.291Z,3.70
2018-02-18T09:21:18.977Z,3.70
2018-02-18T09:23:46.595Z,3.80
2018-02-18T09:26:14.239Z,3.80
2018-02-18T09:28:41.885Z,3.90
2018-02-18T09:31:09.553Z,4.00
2018-02-18T09:33:37.929Z,3.80
2018-02-18T09:36:06.313Z,3.80
2018-02-18T09:38:34.017Z,3.70
2018-02-18T09:41:01.630Z,3.50
2018-02-18T09:43:29.277Z,3.20
2018-02-18T09:45:56.892Z,3.30
2018-02-18T09:48:24.509Z,3.20
2018-02-18T09:50:52.917Z,3.50
2018-02-18T09:53:20.542Z,3.40
2018-02-18T09:55:48.198Z,3.40
2018-02-18T09:58:16.005Z,3.50
2018-02-18T10:00:43.907Z,3.80
2018-02-18T10:03:11.546Z,3.60
2018-02-18T10:05:39.358Z,3.40
2018-02-18T10:08:07.264Z,3.60
2018-02-18T10:10:34.917Z,3.70
2018-02-18T10:13:03.284Z,4.00
2018-02-18T10:15:31.236Z,3.90
2018-02-18T10:18:01.466Z,3.80
2018-02-18T10:20:30.147Z,3.90
2018-02-18T10:22:57.758Z,3.80
2018-02-18T10:25:25.512Z,4.00
2018-02-18T10:27:53.167Z,4.20
2018-02-18T10:30:20.784Z,4.20
2018-02-18T10:32:48.440Z,4.30
2018-02-18T10:35:16.048Z,4.30
2018-02-18T10:40:31.373Z,3.80
2018-02-18T10:42:59.794Z,4.10
2018-02-18T10:45:27.409Z,4.00
2018-02-18T10:47:55.019Z,4.30
2018-02-18T10:50:23.438Z,4.60
2018-02-18T10:52:51.045Z,4.50
2018-02-18T10:55:18.690Z,4.50
2018-02-18T10:57:46.338Z,4.20
2018-02-18T11:00:14.715Z,4.20
2018-02-18T11:02:42.404Z,4.20
2018-02-18T11:05:10.032Z,4.30
2018-02-18T11:07:37.676Z,4.10
2018-02-18T11:10:05.292Z,4.00
2018-02-18T11:12:33.918Z,4.00
2018-02-18T11:15:02.313Z,4.00
2018-02-18T11:17:30.686Z,4.00
2018-02-18T11:19:58.342Z,3.90
2018-02-18T11:22:25.954Z,4.00
2018-02-18T11:24:54.344Z,4.00
2018-02-18T11:27:22.756Z,4.00
2018-02-18T11:29:50.377Z,3.90
2018-02-18T11:32:18.018Z,4.10
2018-02-18T11:34:45.634Z,4.10
2018-02-18T11:37:13.251Z,3.90
2018-02-18T11:39:40.887Z,3.80
2018-02-18T11:42:08.582Z,3.80
2018-02-18T11:44:36.162Z,4.10
2018-02-18T11:47:03.774Z,4.30
2018-02-18T11:49:31.381Z,4.50
2018-02-18T11:51:59.009Z,4.40
2018-02-18T11:54:26.617Z,4.20
2018-02-18T11:56:54.270Z,4.20
2018-02-18T11:59:21.882Z,4.50
2018-02-18T12:01:55.621Z,4.40
2018-02-18T12:10:18.930Z,4.00
2018-02-18T12:12:47.894Z,4.10
2018-02-18T12:15:18.867Z,4.10
2018-02-18T12:17:46.498Z,3.90
2018-02-18T12:20:14.911Z,3.60
2018-02-18T12:22:42.514Z,3.60
2018-02-18T12:25:10.148Z,3.80
2018-02-18T12:27:37.760Z,4.10
2018-02-18T12:30:05.398Z,4.20
2018-02-18T12:32:33.014Z,4.30
2018-02-18T12:35:00.618Z,4.40
2018-02-18T12:37:29.353Z,4.50
2018-02-18T12:39:56.972Z,4.40
2018-02-18T12:42:24.614Z,4.50
2018-02-18T12:44:52.218Z,4.50
2018-02-18T12:47:19.876Z,4.30
2018-02-18T12:49:47.488Z,4.10
2018-02-18T12:52:15.857Z,4.00
2018-02-18T12:54:43.534Z,3.90
2018-02-18T12:57:11.138Z,3.90
2018-02-18T12:59:39.518Z,4.10
2018-02-18T13:02:07.914Z,4.30
2018-02-18T13:04:36.284Z,4.40
2018-02-18T13:07:03.967Z,4.30
2018-02-18T13:09:31.560Z,4.50
2018-02-18T13:11:59.925Z,4.00
2018-02-18T13:14:27.594Z,4.00
2018-02-18T13:16:55.190Z,3.90
2018-02-18T13:19:23.598Z,3.80
2018-02-18T13:21:51.207Z,3.70
2018-02-18T13:24:18.820Z,3.70
2018-02-18T13:26:46.469Z,3.70
2018-02-18T13:29:14.076Z,4.00
2018-02-18T13:31:42.497Z,3.90
2018-02-18T13:34:10.109Z,3.80
2018-02-18T13:36:42.944Z,3.90
2018-02-18T13:39:11.636Z,4.00
2018-02-18T13:41:39.278Z,4.00
2018-02-18T13:44:06.906Z,4.10
2018-02-18T13:46:34.535Z,4.10
2018-02-18T13:49:02.186Z,4.20
2018-02-18T13:51:29.842Z,4.20
2018-02-18T13:53:59.378Z,4.20
2018-02-18T13:56:27.012Z,4.30
2018-02-18T13:58:55.385Z,4.40
2018-02-18T14:01:23.801Z,4.30
2018-02-18T14:03:52.179Z,4.30
2018-02-18T14:06:20.550Z,4.10
2018-02-18T14:08:48.185Z,4.00
2018-02-18T14:11:15.823Z,3.90
2018-02-18T14:13:44.238Z,4.10
2018-02-18T14:16:11.854Z,4.00
2018-02-18T14:18:39.465Z,4.30
2018-02-18T14:21:07.869Z,4.20
2018-02-18T14:23:35.485Z,4.20
2018-02-18T14:26:03.129Z,3.90
2018-02-18T14:28:30.754Z,3.80
2018-02-18T14:30:58.353Z,3.90
2018-02-18T14:33:26.756Z,4.00
2018-02-18T14:35:54.369Z,4.00
2018-02-18T14:38:22.006Z,3.90
2018-02-18T14:40:49.618Z,4.00
2018-02-18T14:43:29.186Z,4.00
2018-02-18T14:46:08.742Z,4.00
2018-02-18T14:48:48.269Z,3.90
2018-02-18T14:51:27.670Z,3.90
2018-02-18T14:57:04.741Z,3.60
2018-02-18T14:59:32.382Z,3.70
2018-02-18T15:02:00.750Z,3.60
2018-02-18T15:04:28.366Z,3.50
2018-02-18T15:06:56.002Z,3.60
2018-02-18T15:09:23.617Z,3.60
2018-02-18T15:11:51.311Z,3.50
2018-02-18T15:14:18.936Z,3.40
2018-02-18T15:16:47.313Z,3.40
2018-02-18T15:19:14.946Z,3.40
2018-02-18T15:21:42.553Z,3.50
2018-02-18T15:24:10.226Z,3.60
2018-02-18T15:26:37.850Z,3.60
2018-02-18T15:29:05.699Z,3.50
2018-02-18T15:31:34.126Z,3.50
2018-02-18T15:34:01.770Z,3.40
2018-02-18T15:36:29.481Z,3.50
2018-02-18T15:38:57.098Z,3.40
2018-02-18T15:41:24.789Z,3.30
2018-02-18T15:43:52.422Z,3.30
2018-02-18T15:46:20.030Z,3.30
2018-02-18T15:48:47.674Z,3.20
2018-02-18T15:51:15.357Z,3.10
2018-02-18T15:53:42.969Z,3.10
2018-02-18T15:56:11.367Z,3.10
2018-02-18T15:58:39.770Z,3.10
2018-02-18T16:01:09.232Z,3.00
2018-02-18T16:03:36.897Z,3.00
2018-02-18T16:06:04.510Z,3.00
2018-02-18T16:08:33.030Z,3.00
2018-02-18T16:11:01.414Z,3.00
2018-02-18T16:13:30.255Z,3.00
2018-02-18T16:15:57.869Z,2.90
2018-02-18T16:18:25.857Z,3.10
2018-02-18T16:20:53.519Z,3.10
2018-02-18T16:23:21.118Z,3.10
2018-02-18T16:25:49.529Z,3.00
2018-02-18T16:28:17.154Z,3.00
2018-02-18T16:30:44.793Z,2.90
2018-02-18T16:33:12.422Z,2.80
2018-02-18T16:35:40.861Z,2.90
2018-02-18T16:38:08.560Z,2.90
2018-02-18T16:40:36.169Z,2.80
2018-02-18T16:43:04.550Z,2.70
2018-02-18T16:45:32.182Z,2.70
2018-02-18T16:47:59.806Z,2.70
2018-02-18T16:50:27.484Z,2.70
2018-02-18T16:52:55.864Z,2.60
2018-02-18T16:55:23.473Z,2.60
2018-02-18T16:57:51.105Z,2.60
2018-02-18T17:00:19.109Z,2.60
2018-02-18T17:02:47.607Z,2.50
2018-02-18T17:05:15.987Z,2.60
2018-02-18T17:07:43.597Z,2.50
2018-02-18T17:10:11.217Z,2.50
2018-02-18T17:12:39.254Z,2.50
2018-02-18T17:15:06.903Z,2.50
2018-02-18T17:17:35.275Z,2.50
2018-02-18T17:20:02.878Z,2.50
2018-02-18T17:22:30.598Z,2.50
2018-02-18T17:24:58.230Z,2.40
2018-02-18T17:27:25.882Z,2.40
2018-02-18T17:29:54.257Z,2.30
2018-02-18T17:32:21.926Z,2.30
2018-02-18T17:34:49.601Z,2.20
2018-02-18T17:37:17.241Z,2.30
2018-02-18T17:39:44.876Z,2.30
2018-02-18T17:42:16.833Z,2.20
2018-02-18T17:44:45.287Z,2.20
2018-02-18T17:47:12.906Z,2.20
2018-02-18T17:49:40.508Z,2.20
2018-02-18T17:52:08.905Z,2.00
2018-02-18T17:54:36.526Z,1.90
2018-02-18T17:57:04.174Z,2.00
2018-02-18T17:59:31.777Z,1.90
2018-02-18T18:01:59.405Z,1.80
2018-02-18T18:04:27.029Z,1.80
2018-02-18T18:06:54.625Z,1.80
2018-02-18T18:09:23.090Z,1.70
2018-02-18T18:11:50.700Z,1.60
2018-02-18T18:14:19.074Z,1.70
2018-02-18T18:16:46.707Z,1.60
2018-02-18T18:19:14.441Z,1.70
2018-02-18T18:21:42.870Z,1.80
2018-02-18T18:24:10.511Z,1.80
2018-02-18T18:26:38.932Z,1.80
2018-02-18T18:29:06.559Z,1.70
2018-02-18T18:31:34.203Z,1.70
2018-02-18T18:34:01.852Z,1.70
2018-02-18T18:36:29.524Z,1.60
2018-02-18T18:38:57.147Z,1.60
2018-02-18T18:41:24.799Z,1.60
2018-02-18T18:43:52.420Z,1.50
2018-02-18T18:46:20.851Z,1.50
2018-02-18T18:48:48.473Z,1.50
2018-02-18T18:51:16.100Z,1.50
2018-02-18T18:53:43.735Z,1.50
2018-02-18T18:56:12.111Z,1.40
2018-02-18T18:58:39.770Z,1.30
2018-02-18T19:01:07.382Z,1.40
2018-02-18T19:03:34.993Z,1.40
2018-02-18T19:06:02.629Z,1.30
2018-02-18T19:08:31.002Z,1.30
2018-02-18T19:10:58.653Z,1.20
2018-02-18T19:13:26.254Z,1.30
2018-02-18T19:15:54.636Z,1.20
2018-02-18T19:18:22.648Z,1.20
2018-02-18T19:20:51.990Z,1.20
2018-02-18T19:23:19.648Z,1.20
2018-02-18T19:25:47.969Z,1.10
2018-02-18T19:28:15.779Z,1.10
2018-02-18T19:30:44.202Z,1.20
2018-02-18T19:33:11.872Z,1.10
2018-02-18T19:35:40.285Z,1.20
2018-02-18T19:38:08.001Z,1.10
2018-02-18T19:40:36.585Z,1.10
2018-02-18T19:43:04.275Z,1.10
2018-02-18T19:45:32.760Z,1.10
2018-02-18T19:48:00.537Z,1.00
2018-02-18T19:50:28.138Z,1.10
2018-02-18T19:52:57.045Z,1.00
2018-02-18T19:55:25.514Z,1.10
2018-02-18T19:57:53.138Z,1.00
2018-02-18T20:00:21.093Z,1.10
2018-02-18T20:02:49.470Z,1.00
2018-02-18T20:05:17.120Z,1.00
2018-02-18T20:07:44.789Z,1.00
2018-02-18T20:10:12.413Z,1.00
2018-02-18T20:12:40.982Z,1.10
2018-02-18T20:15:08.806Z,1.00
2018-02-18T20:17:36.929Z,1.00
2018-02-18T20:20:05.442Z,0.90
2018-02-18T20:22:33.183Z,0.90
2018-02-18T20:25:01.002Z,0.90
2018-02-18T20:27:28.663Z,0.90
2018-02-18T20:29:56.380Z,0.90
2018-02-18T20:32:24.034Z,0.90
2018-02-18T20:34:51.737Z,0.90
2018-02-18T20:37:19.385Z,0.90
2018-02-18T20:39:47.033Z,0.90
2018-02-18T20:42:14.706Z,0.80
2018-02-18T20:44:42.310Z,0.80
2018-02-18T20:47:09.950Z,0.90
2018-02-18T20:49:37.563Z,1.10
2018-02-18T20:52:05.943Z,1.10
2018-02-18T20:54:34.358Z,1.10
2018-02-18T20:57:01.988Z,1.00
2018-02-18T20:59:29.691Z,1.10
2018-02-18T21:01:58.124Z,1.10
2018-02-18T21:04:25.733Z,1.00
2018-02-18T21:06:53.398Z,1.10
2018-02-18T21:09:21.014Z,1.10
2018-02-18T21:11:48.659Z,1.00
2018-02-18T21:14:16.265Z,1.10
2018-02-18T21:16:44.645Z,1.10
2018-02-18T21:19:12.277Z,1.10
2018-02-18T21:21:39.891Z,1.10
2018-02-18T21:24:07.634Z,1.10
2018-02-18T21:26:35.326Z,1.10
2018-02-18T21:29:02.946Z,1.10
2018-02-18T21:31:30.601Z,1.20
2018-02-18T21:33:58.978Z,1.30
2018-02-18T21:36:26.622Z,1.20
2018-02-18T21:38:54.262Z,1.20
2018-02-18T21:41:21.861Z,1.20
2018-02-18T21:43:49.587Z,1.30
2018-02-18T21:46:17.314Z,1.30
2018-02-18T21:48:50.401Z,1.20
2018-02-18T21:51:21.618Z,1.20
2018-02-18T21:53:52.109Z,1.10
2018-02-18T21:56:22.258Z,1.20
2018-02-18T21:58:49.931Z,1.20
2018-02-18T22:01:17.570Z,1.10
2018-02-18T22:03:45.206Z,1.10
2018-02-18T22:06:12.867Z,1.10
2018-02-18T22:08:40.480Z,1.10
2018-02-18T22:11:08.861Z,1.10
2018-02-18T22:13:37.389Z,1.10
2018-02-18T22:16:05.037Z,1.10
2018-02-18T22:18:32.697Z,1.10
2018-02-18T22:21:00.303Z,1.00
2018-02-18T22:23:27.926Z,1.00
2018-02-18T22:25:55.557Z,1.00
2018-02-18T22:28:23.169Z,1.10
2018-02-18T22:30:50.823Z,1.00
2018-02-18T22:33:18.429Z,0.90
2018-02-18T22:35:46.028Z,0.90
2018-02-18T22:38:14.434Z,0.70
2018-02-18T22:40:42.041Z,0.70
2018-02-18T22:43:09.687Z,0.70
2018-02-18T22:45:37.346Z,0.70
2018-02-18T22:48:04.935Z,0.60
2018-02-18T22:50:32.573Z,0.60
2018-02-18T22:53:00.198Z,0.60
2018-02-18T22:55:27.844Z,0.40
2018-02-18T22:57:56.234Z,0.10
2018-02-18T23:00:24.676Z,0.00
2018-02-18T23:02:52.309Z,-0.10
2018-02-18T23:05:25.620Z,-0.10
2018-02-18T23:07:53.264Z,-0.20
2018-02-18T23:10:20.882Z,-0.30
2018-02-18T23:12:48.525Z,-0.30
2018-02-18T23:15:16.900Z,-0.40
2018-02-18T23:17:44.551Z,-0.40
2018-02-18T23:20:12.186Z,-0.50
2018-02-18T23:22:39.796Z,-0.50
2018-02-18T23:25:07.436Z,-0.60
2018-02-18T23:27:35.058Z,-0.60
2018-02-18T23:30:02.717Z,-0.60
2018-02-18T23:32:30.341Z,-0.70
2018-02-18T23:34:58.748Z,-0.80
2018-02-18T23:37:26.403Z,-0.80
2018-02-18T23:39:54.025Z,-0.90
2018-02-18T23:42:21.683Z,-0.90
2018-02-18T23:44:49.308Z,-0.90
2018-02-18T23:47:17.575Z,-1.00
2018-02-18T23:49:45.219Z,-1.00
2018-02-18T23:52:12.833Z,-1.00
2018-02-18T23:54:40.490Z,-1.10
2018-02-18T23:57:08.111Z,-1.10
2018-02-18T23:59:35.725Z,-1.10
